NCAR-RAP Real-Time Weather Data

Output produced by METARs form (20 February 2019  18:07 UTC)
found at http://weather.rap.ucar.edu/surface/
 
RJOT 201200Z 28007KT 9999 FEW030 BKN050 07/01 Q1021
RJOT 201100Z 28011KT 9999 FEW025 SCT040 BKN050 08/01 Q1021
RJOT 201000Z 30013KT 9999 FEW025 SCT040 BKN050 08/01 Q1020
RJOT 200900Z 28010KT 9999 FEW020 BKN035 10/04 Q1019
RJOT 200800Z 28013KT 9999 FEW020 BKN030 10/05 Q1018
RJOT 200700Z 26014KT 9999 FEW020 BKN035 12/06 Q1017
RJOT 200600Z 26016KT 9999 FEW020 BKN035 12/05 Q1017
RJOT 200500Z 25017KT 9999 FEW020 SCT025 BKN040 12/05 Q1017
RJOT 200400Z 28014KT 9999 FEW020 SCT025 BKN040 12/08 Q1017
RJOT 200300Z 27011KT 9999 FEW020 SCT025 BKN035 12/08 Q1017
RJOT 200200Z 28010KT 9999 FEW020 SCT025 BKN035 11/08 Q1018
RJOT 200100Z 25011KT 9999 FEW020 SCT030 BKN050 12/08 Q1017
RJOT 200000Z 24011KT 9999 FEW020 SCT030 BKN040 12/09 Q1017
RJOT 192300Z 25010KT 9999 -SHRA FEW020 SCT030 BKN050 12/09 Q1017
RJOT 192200Z 26011KT 9999 FEW020 SCT030 BKN050 12/10 Q1016
RJOT 192120Z 26012KT 9999 FEW020 SCT030 BKN050 12/10 Q1016 RMK 1CU020 3CU030 5SC050 A3002 P/RR
RJOT 191242Z 23012KT 5000 BR FEW000 SCT/// 11/11 Q1014 RMK 1ST000 A2995
RJOT 191230Z 22011KT 4000 BR FEW000 10/10 Q1014 RMK 1ST000 A2994
RJOT 191224Z 22009KT 3000 R26/0750VP2000U BR FEW000 SCT003 10/10 Q1013 RMK 1ST000 3ST003 A2994
RJOT 191223Z 22009KT 3000 R26/0600VP2000U BR FEW000 SCT003 10/10 Q1013 RMK 1ST000 3ST003 A2994
RJOT 191222Z 22009KT 2500 R26/0600VP2000U BR FEW000 SCT003 10/10 Q1013 RMK 1ST000 3ST003 A2994
RJOT 191221Z 22009KT 2500 R26/0400VP2000U BR FEW000 SCT003 10/10 Q1013 RMK 1ST000 3ST003 A2994
RJOT 191220Z 21008KT 2000 R26/0375VP2000U BR FEW000 SCT003 10/10 Q1013 RMK 1ST000 3ST003 A2994
RJOT 191219Z 21008KT 2000 R26/0325VP2000U BR FEW000 SCT003 10/10 Q1013 RMK 1ST000 3ST003 A2994
RJOT 191217Z 21008KT 1500 R26/0300VP2000U BR FEW000 SCT003 10/10 Q1013 RMK 1ST000 3ST003 A2994
RJOT 191212Z 21008KT 0200 R26/0300V1100N FG FEW000 SCT001 BKN002 10/10 Q1013 RMK 1ST000 3ST001 5ST002 A2994
RJOT 191211Z 21008KT 0200 R26/0300V1100D FG FEW000 SCT001 BKN002 10/10 Q1013 RMK 1ST000 3ST001 5ST002 A2994
RJOT 191207Z 22008KT 0200 R26/0300V1100D FG FEW000 SCT001 BKN002 10/10 Q1013 RMK 1ST000 3ST001 5ST002 A2994
RJOT 191204Z 22008KT 0300 R26/0375VP2000D FG FEW000 SCT001 BKN003 09/09 Q1013 RMK 1ST000 3ST001 5ST003 A2994
RJOT 191203Z 23008KT 0300 R26/0375VP2000D FG FEW000 SCT001 BKN003 09/09 Q1013 RMK 1ST000 3ST001 5ST003 A2994
RJOT 191202Z 23008KT 0400 R26/0550VP2000D FG FEW000 SCT002 BKN004 09/09 Q1014 RMK 1ST000 3ST002 5ST004 A2994
RJOT 191200Z 23008KT 0400 R26/0550VP2000D FG FEW000 SCT002 BKN004 09/09 Q1014
RJOT 191147Z 23007KT 1000 R26/1200VP2000D BR FEW000 SCT003 10/10 Q1014 RMK 1ST000 3ST003 A2995
RJOT 191119Z 28004KT 230V310 1500 R26/P2000N BR FEW000 SCT003 10/10 Q1013 RMK 1ST000 3ST003 A2993
RJOT 191112Z 30003KT 2000 BR FEW000 SCT003 09/09 Q1013 RMK 1ST000 3ST003 A2993
RJOT 191100Z 22003KT 190V250 3000 BR FEW000 10/10 Q1013
RJOT 191000Z 21008KT 170V230 3000 BR FEW000 SCT040 11/11 Q1013
RJOT 190948Z 24006KT 1500 R26/P2000N BR FEW000 SCT003 BKN050 11/11 Q1013 RMK 1ST000 3ST003 5SC050 A2992
RJOT 190926Z 27009KT 1200 R26/P2000N BR FEW000 SCT003 BKN006 10/10 Q1013 RMK 1ST000 3ST003 5ST006 A2992 P/RR
RJOT 190905Z 24005KT 1200 R26/1400VP2000N BR FEW000 SCT003 BKN050 11/11 Q1012 RMK 1ST000 3ST003 5SC050 A2989
RJOT 190900Z 26005KT 0700 R26/1400VP2000D FG FEW000 SCT001 BKN003 11/11 Q1012
RJOT 190840Z 26007KT 0400 R26/0800V1700N FG FEW000 SCT001 BKN002 11/11 Q1011 RMK 1ST000 3ST001 5ST002 A2988
RJOT 190835Z 26008KT 0400 R26/0800V1700N FG FEW000 SCT001 BKN002 11/11 Q1011 RMK 1ST000 3ST001 5ST002 A2987
RJOT 190829Z 27008KT 0400 R26/1100V1700D FG FEW000 SCT001 BKN002 11/11 Q1011 RMK 1ST000 3ST001 5ST002 A2987
RJOT 190826Z 27008KT 0400 R26/1100V1900D FG FEW000 SCT001 BKN002 11/11 Q1012 RMK 1ST000 3ST001 5ST002 A2988
RJOT 190820Z 27009KT 0600 R26/1700N FG FEW000 SCT002 BKN004 11/11 Q1012 RMK 1ST000 3ST002 5ST004 A2988
RJOT 190803Z 25007KT 1000 R26/P2000N BR FEW000 SCT003 BKN005 11/11 Q1011 RMK 1ST000 3ST003 5ST005 A2988
RJOT 190800Z 24007KT 1500 R26/P2000N BR FEW000 SCT005 BKN080 11/11 Q1011
RJOT 190746Z 24007KT 0800 R26/0900VP2000U FG FEW000 SCT003 BKN060 11/11 Q1011 RMK 1ST000 3ST003 5SC060 A2987
RJOT 190743Z 24007KT 0800 R26/0900VP2000N FG FEW000 SCT003 BKN060 11/11 Q1011 RMK 1ST000 3ST003 5SC060 A2987
RJOT 190715Z VRB02KT 0800 R26/P2000N FG FEW000 BKN003 BKN060 11/11 Q1011 RMK 1ST000 5ST003 6SC060 A2986
RJOT 190708Z VRB02KT 0800 R26/P2000N FG FEW000 SCT003 BKN060 11/11 Q1011 RMK 1ST000 3ST003 5SC060 A2986 P/RR
RJOT 190700Z VRB03KT 0600 R26/1500VP2000U FG FEW000 SCT001 BKN006 11/11 Q1011
RJOT 190647Z 36005KT 270V040 0600 R26/P2000N FG FEW000 SCT001 BKN006 11/11 Q1010 RMK 1ST000 3ST001 5ST006 A2984
RJOT 190646Z 01006KT 290V040 0800 R26/P2000N FG FEW000 SCT001 BKN008 11/11 Q1010 RMK 1ST000 3ST001 5ST008 A2984
RJOT 190644Z 02005KT 2000 BR FEW000 SCT001 BKN010 12/11 Q1010 RMK 1ST000 3ST001 5ST010 A2984
RJOT 190636Z 05005KT 350V100 4000 -RA BR FEW000 SCT008 BKN120 12/12 Q1010 RMK 1ST000 3ST008 5AC120 A2983
RJOT 190629Z 08006KT 2000 R26/0800VP2000U -RA BR FEW000 SCT005 BKN100 12/12 Q1010 RMK 1ST000 3ST005 5AC100 A2983 P/FR
RJOT 190626Z 08005KT 030V110 1500 R26/0400VP2000U -RA BR FEW000 SCT002 BKN100 11/11 Q1010 RMK 1ST000 3ST002 5AC100 A2983 P/FR
RJOT 190618Z 05004KT 350V110 0400 R26/0400VP2000D FG -RA FEW000 SCT001 BKN003 11/11 Q1010 RMK 1ST000 3ST001 5ST003 A2984 P/FR
RJOT 190617Z 05004KT 350V110 0400 R26/0400VP2000D FG -RA FEW000 SCT001 BKN004 11/11 Q1010 RMK 1ST000 3ST001 5ST004 A2984 P/FR
RJOT 190614Z 09004KT 350V150 0400 R26/P2000N FG -RA FEW000 SCT001 BKN004 11/11 Q1011 RMK 1ST000 3ST001 5ST004 A2986 P/FR
RJOT 190612Z 10004KT 040V150 0800 R26/P2000N FG -RA FEW000 SCT001 BKN005 12/12 Q1011 RMK 1ST000 3ST001 5ST005 A2987 P/FR
RJOT 190610Z 11004KT 070V150 2000 -RA BR FEW000 SCT001 BKN008 11/11 Q1011 RMK 1ST000 3ST001 5ST008 A2987 P/FR
RJOT 190600Z 09004KT 010V130 3000 -RA BR FEW000 SCT010 BKN090 11/11 Q1011
RJOT 190545Z 12003KT 090V170 3000 -RA BR FEW000 SCT010 BKN080 11/11 Q1012 RMK 1ST000 3ST010 5AC080 A2990 P/FR
RJOT 190521Z 16004KT 100V200 1000 R26/P2000N -RA BR FEW000 SCT002 BKN010 10/10 Q1013 RMK 1ST000 3ST002 5ST010 A2992
RJOT 190500Z 31003KT 280V350 0800 R26/P2000N FG -RA FEW000 SCT001 BKN004 10/10 Q1013
RJOT 190446Z 35004KT 320V030 0800 R26/1500VP2000D FG -RA FEW000 SCT001 BKN005 10/10 Q1013 RMK 1ST000 3ST001 5ST005 A2993
RJOT 190442Z 36004KT 1000 R26/2000N -RA BR FEW000 SCT002 BKN010 10/10 Q1013 RMK 1ST000 3ST002 5ST010 A2992
RJOT 190439Z 01003KT 330V030 1500 R26/P2000N -RA BR FEW000 SCT005 BKN080 10/10 Q1013 RMK 1ST000 3ST005 5AC080 A2992
RJOT 190436Z 02003KT 360V080 2000 -RA BR FEW000 SCT008 BKN080 10/10 Q1013 RMK 1ST000 3ST008 5AC080 A2992
RJOT 190423Z 10003KT 010V150 3000 -RA BR FEW000 SCT010 BKN080 10/10 Q1013 RMK 1ST000 3ST010 5AC080 A2992 P/FR
RJOT 190400Z VRB01KT 2000 -RA BR FEW000 SCT002 BKN010 10/10 Q1014
RJOT 190344Z VRB02KT 1500 R26/P2000N -RA BR FEW000 SCT002 BKN010 10/10 Q1014 RMK 1ST000 3ST002 5ST010 A2997
RJOT 190325Z VRB02KT 1000 R26/1500VP2000U -RA BR FEW000 SCT001 BKN004 09/09 Q1014 RMK 1ST000 3ST001 5ST004 A2997
RJOT 190319Z VRB02KT 0800 R26/0650VP2000U FG -RA FEW000 SCT001 BKN003 09/09 Q1015 RMK 1ST000 3ST001 5ST003 A2998
RJOT 190315Z VRB02KT 0400 R26/0600VP2000U FG -RA FEW000 SCT001 BKN003 09/09 Q1015 RMK 1ST000 3ST001 5ST003 A2997
RJOT 190310Z 36003KT 330V090 0400 R26/0600VP2000D FG -RA FEW000 SCT001 BKN003 09/09 Q1015 RMK 1ST000 3ST001 5ST003 A2998
RJOT 190309Z 36003KT 310V090 0400 R26/0600VP2000D FG -RA FEW000 SCT001 BKN003 09/09 Q1015 RMK 1ST000 3ST001 5ST003 A2999
RJOT 190300Z 01003KT 310V060 0400 R26/P2000N FG -RA FEW000 SCT001 BKN003 09/09 Q1015
RJOT 190249Z VRB02KT 0900 R26/0700VP2000U FG -RA FEW000 SCT001 BKN002 09/09 Q1015 RMK 1ST000 3ST001 5ST002 A2999 P/FR
RJOT 190248Z VRB02KT 0800 R26/0375VP2000U FG -RA FEW000 SCT001 BKN002 09/09 Q1015 RMK 1ST000 3ST001 5ST002 A2999 P/FR
RJOT 190247Z VRB02KT 0700 R26/0350VP2000U FG -RA FEW000 SCT001 BKN002 09/09 Q1015 RMK 1ST000 3ST001 5ST002 A2999 P/FR
RJOT 190246Z VRB02KT 0700 R26/0350VP2000U FG -RA FEW000 SCT001 BKN002 08/08 Q1015 RMK 1ST000 3ST001 5ST002 A3000 P/FR
RJOT 190245Z VRB02KT 0700 R26/0350VP2000U FG -RA FEW000 SCT001 BKN002 09/09 Q1015 RMK 1ST000 3ST001 5ST002 A3000 P/FR
RJOT 190242Z VRB02KT 0400 R26/0350VP2000U FG -RA FEW000 SCT001 BKN002 09/09 Q1016 RMK 1ST000 3ST001 5ST002 A3000
RJOT 190239Z VRB01KT 0400 R26/0325V1100N FG -RA FEW000 SCT001 BKN002 09/09 Q1015 RMK 1ST000 3ST001 5ST002 A3000 P/FR
RJOT 190200Z VRB01KT 0200 R26/0325N FG VV001 08/08 Q1017
RJOT 190145Z VRB01KT 0200 R26/0300V0750D FG VV001 08/08 Q1018 RMK A3006
RJOT 190140Z VRB01KT 0200 R26/0350V0900D FG VV002 08/08 Q1018 RMK A3006
RJOT 190125Z VRB01KT 0200 R26/0650V0900N FG VV002 08/08 Q1018 RMK A3007
RJOT 190121Z VRB01KT 0300 R26/0800V1400D FG FEW000 SCT001 BKN002 08/08 Q1018 RMK 1ST000 3ST001 5ST002 A3008
RJOT 190118Z VRB01KT 0400 R26/0800V1700D FG FEW000 SCT001 BKN002 07/07 Q1018 RMK 1ST000 3ST001 5ST002 A3008
RJOT 190115Z VRB01KT 0400 R26/0800V1900D FG FEW000 SCT001 BKN002 08/08 Q1018 RMK 1ST000 3ST001 5ST002 A3008
RJOT 190113Z VRB01KT 0400 R26/0800V2000D FG FEW000 SCT001 BKN002 08/08 Q1018 RMK 1ST000 3ST001 5ST002 A3008
RJOT 190110Z VRB01KT 0400 R26/0800VP2000D FG FEW000 SCT001 BKN002 07/07 Q1018 RMK 1ST000 3ST001 5ST002 A3008
RJOT 190100Z VRB01KT 0700 R26/1200VP2000D FG -RA FEW000 SCT001 BKN002 07/07 Q1018
RJOT 190009Z 05003KT 360V160 1200 R26/P2000N -RA BR FEW000 SCT001 BKN003 07/07 Q1019 RMK 1ST000 3ST001 5ST003 A3010
RJOT 190000Z VRB02KT 1500 R26/P2000N -RA BR FEW000 SCT001 BKN003 07/07 Q1019
RJOT 182345Z VRB02KT 2000 -RA BR FEW000 SCT002 BKN004 06/06 Q1019 RMK 1ST000 3ST002 5ST004 A3011
RJOT 182300Z VRB02KT 3000 -RA BR FEW000 SCT003 BKN005 06/06 Q1020
RJOT 182240Z 14003KT 4000 -RA BR FEW001 SCT004 BKN006 06/06 Q1021 RMK 1ST001 3ST004 5ST006 A3016
RJOT 182200Z 14003KT 4000 -RA BR FEW002 SCT005 BKN007 06/06 Q1021
RJOT 182148Z 11002KT 4500 -RA BR FEW002 SCT005 BKN007 06/06 Q1021 RMK 1ST002 3ST005 5ST007 A3016
RJOT 182120Z 11002KT 8000 -RA FEW002 SCT007 BKN060 06/05 Q1021 RMK 1ST002 3ST007 5SC060 A3017
RJOT 181200Z VRB02KT 9999 FEW030 BKN090 07/02 Q1025
RJOT 181100Z 17001KT 9999 FEW030 BKN100 06/01 Q1025
RJOT 181000Z 10001KT 9999 FEW030 BKN110 07/00 Q1025
RJOT 180900Z 06005KT 9999 FEW030 SCT120 BKN140 07/M00 Q1024
RJOT 180800Z 06006KT 9999 FEW030 BKN/// 08/00 Q1024
RJOT 180700Z 07007KT 9999 FEW030 SCT/// 10/01 Q1023